sensor_id;sensor_type;location;lat;lon;timestamp;P1;durP1;ratioP1;P2;durP2;ratioP2
75682;SDS011;64295;44.772;39.872;2023-04-19T00:01:04;4.72;;;2.60;;
75682;SDS011;64295;44.772;39.872;2023-04-19T00:03:30;4.55;;;2.45;;
75682;SDS011;64295;44.772;39.872;2023-04-19T00:05:56;12.00;;;2.97;;
75682;SDS011;64295;44.772;39.872;2023-04-19T00:08:25;3.42;;;2.20;;
75682;SDS011;64295;44.772;39.872;2023-04-19T00:10:51;7.43;;;3.13;;
75682;SDS011;64295;44.772;39.872;2023-04-19T00:13:17;10.55;;;3.50;;
75682;SDS011;64295;44.772;39.872;2023-04-19T00:15:43;5.78;;;3.00;;
75682;SDS011;64295;44.772;39.872;2023-04-19T00:18:09;5.93;;;3.22;;
75682;SDS011;64295;44.772;39.872;2023-04-19T00:20:35;4.53;;;2.13;;
75682;SDS011;64295;44.772;39.872;2023-04-19T00:23:01;2.55;;;2.30;;
75682;SDS011;64295;44.772;39.872;2023-04-19T00:25:27;10.52;;;3.42;;
75682;SDS011;64295;44.772;39.872;2023-04-19T00:27:55;8.35;;;3.72;;
75682;SDS011;64295;44.772;39.872;2023-04-19T00:30:21;3.72;;;2.13;;
75682;SDS011;64295;44.772;39.872;2023-04-19T00:32:47;6.55;;;2.97;;
75682;SDS011;64295;44.772;39.872;2023-04-19T00:35:13;6.82;;;3.17;;
75682;SDS011;64295;44.772;39.872;2023-04-19T00:37:39;7.95;;;2.63;;
75682;SDS011;64295;44.772;39.872;2023-04-19T00:40:05;7.93;;;2.85;;
75682;SDS011;64295;44.772;39.872;2023-04-19T00:42:33;4.85;;;2.95;;
75682;SDS011;64295;44.772;39.872;2023-04-19T00:45:00;5.63;;;2.35;;
75682;SDS011;64295;44.772;39.872;2023-04-19T00:47:26;11.57;;;3.80;;
75682;SDS011;64295;44.772;39.872;2023-04-19T00:49:52;6.00;;;2.65;;
75682;SDS011;64295;44.772;39.872;2023-04-19T00:52:18;4.55;;;2.33;;
75682;SDS011;64295;44.772;39.872;2023-04-19T00:54:45;8.32;;;3.35;;
75682;SDS011;64295;44.772;39.872;2023-04-19T00:57:11;4.63;;;2.72;;
75682;SDS011;64295;44.772;39.872;2023-04-19T00:59:38;12.93;;;4.03;;
75682;SDS011;64295;44.772;39.872;2023-04-19T01:02:04;6.28;;;1.90;;
75682;SDS011;64295;44.772;39.872;2023-04-19T01:04:31;6.20;;;2.42;;
75682;SDS011;64295;44.772;39.872;2023-04-19T01:06:57;5.00;;;2.92;;
75682;SDS011;64295;44.772;39.872;2023-04-19T01:09:23;5.95;;;2.75;;
75682;SDS011;64295;44.772;39.872;2023-04-19T01:11:49;4.30;;;2.63;;
75682;SDS011;64295;44.772;39.872;2023-04-19T01:14:15;12.80;;;2.67;;
75682;SDS011;64295;44.772;39.872;2023-04-19T01:16:45;4.78;;;2.42;;
75682;SDS011;64295;44.772;39.872;2023-04-19T01:19:12;3.55;;;1.90;;
75682;SDS011;64295;44.772;39.872;2023-04-19T01:21:38;5.40;;;2.47;;
75682;SDS011;64295;44.772;39.872;2023-04-19T01:24:05;4.35;;;2.70;;
75682;SDS011;64295;44.772;39.872;2023-04-19T01:26:31;6.18;;;2.88;;
75682;SDS011;64295;44.772;39.872;2023-04-19T01:28:57;6.07;;;2.80;;
75682;SDS011;64295;44.772;39.872;2023-04-19T01:31:23;4.68;;;3.00;;
75682;SDS011;64295;44.772;39.872;2023-04-19T01:33:49;9.15;;;3.80;;
75682;SDS011;64295;44.772;39.872;2023-04-19T01:36:14;7.32;;;3.20;;
75682;SDS011;64295;44.772;39.872;2023-04-19T01:38:40;9.52;;;3.85;;
75682;SDS011;64295;44.772;39.872;2023-04-19T01:41:08;6.20;;;3.53;;
75682;SDS011;64295;44.772;39.872;2023-04-19T01:43:34;13.30;;;3.28;;
75682;SDS011;64295;44.772;39.872;2023-04-19T01:46:00;6.82;;;4.00;;
75682;SDS011;64295;44.772;39.872;2023-04-19T01:48:26;7.50;;;3.10;;
75682;SDS011;64295;44.772;39.872;2023-04-19T01:50:51;6.55;;;3.22;;
75682;SDS011;64295;44.772;39.872;2023-04-19T01:53:18;6.45;;;3.15;;
75682;SDS011;64295;44.772;39.872;2023-04-19T01:55:44;9.95;;;4.20;;
75682;SDS011;64295;44.772;39.872;2023-04-19T01:58:10;5.30;;;3.58;;
75682;SDS011;64295;44.772;39.872;2023-04-19T02:00:36;5.32;;;2.88;;
75682;SDS011;64295;44.772;39.872;2023-04-19T02:03:03;4.47;;;3.17;;
75682;SDS011;64295;44.772;39.872;2023-04-19T02:05:29;7.95;;;3.20;;
75682;SDS011;64295;44.772;39.872;2023-04-19T02:07:54;5.65;;;4.22;;
75682;SDS011;64295;44.772;39.872;2023-04-19T02:10:20;5.75;;;3.63;;
75682;SDS011;64295;44.772;39.872;2023-04-19T02:12:47;13.93;;;2.90;;
75682;SDS011;64295;44.772;39.872;2023-04-19T02:15:13;14.13;;;4.53;;
75682;SDS011;64295;44.772;39.872;2023-04-19T02:17:38;7.20;;;3.42;;
75682;SDS011;64295;44.772;39.872;2023-04-19T02:20:05;15.07;;;3.97;;
75682;SDS011;64295;44.772;39.872;2023-04-19T02:22:32;6.50;;;4.22;;
75682;SDS011;64295;44.772;39.872;2023-04-19T02:24:58;3.75;;;2.90;;
75682;SDS011;64295;44.772;39.872;2023-04-19T02:27:28;8.35;;;3.13;;
75682;SDS011;64295;44.772;39.872;2023-04-19T02:29:54;10.38;;;2.83;;
75682;SDS011;64295;44.772;39.872;2023-04-19T02:32:22;14.00;;;4.22;;
75682;SDS011;64295;44.772;39.872;2023-04-19T02:34:48;10.75;;;3.45;;
75682;SDS011;64295;44.772;39.872;2023-04-19T02:37:14;4.45;;;3.15;;
75682;SDS011;64295;44.772;39.872;2023-04-19T02:39:40;13.70;;;4.85;;
75682;SDS011;64295;44.772;39.872;2023-04-19T02:42:06;12.52;;;5.82;;
75682;SDS011;64295;44.772;39.872;2023-04-19T02:44:32;9.55;;;3.17;;
75682;SDS011;64295;44.772;39.872;2023-04-19T02:46:58;4.93;;;3.00;;
75682;SDS011;64295;44.772;39.872;2023-04-19T02:49:24;4.10;;;2.30;;
75682;SDS011;64295;44.772;39.872;2023-04-19T02:51:50;5.88;;;3.35;;
75682;SDS011;64295;44.772;39.872;2023-04-19T02:54:17;5.53;;;2.67;;
75682;SDS011;64295;44.772;39.872;2023-04-19T02:56:45;4.82;;;2.45;;
75682;SDS011;64295;44.772;39.872;2023-04-19T02:59:12;2.88;;;2.58;;
75682;SDS011;64295;44.772;39.872;2023-04-19T03:01:38;6.03;;;2.70;;
75682;SDS011;64295;44.772;39.872;2023-04-19T03:04:05;4.22;;;2.55;;
75682;SDS011;64295;44.772;39.872;2023-04-19T03:06:31;2.90;;;2.28;;
75682;SDS011;64295;44.772;39.872;2023-04-19T03:08:57;3.20;;;1.85;;
75682;SDS011;64295;44.772;39.872;2023-04-19T03:11:23;3.60;;;2.05;;
75682;SDS011;64295;44.772;39.872;2023-04-19T03:13:49;3.25;;;1.58;;
75682;SDS011;64295;44.772;39.872;2023-04-19T03:16:15;4.55;;;2.10;;
75682;SDS011;64295;44.772;39.872;2023-04-19T03:18:42;2.53;;;1.98;;
75682;SDS011;64295;44.772;39.872;2023-04-19T03:21:09;8.75;;;1.65;;
75682;SDS011;64295;44.772;39.872;2023-04-19T03:23:46;2.63;;;1.90;;
75682;SDS011;64295;44.772;39.872;2023-04-19T03:26:13;3.55;;;3.25;;
75682;SDS011;64295;44.772;39.872;2023-04-19T03:28:43;4.28;;;3.50;;
75682;SDS011;64295;44.772;39.872;2023-04-19T03:31:33;3.83;;;2.47;;
75682;SDS011;64295;44.772;39.872;2023-04-19T03:33:59;8.43;;;3.95;;
75682;SDS011;64295;44.772;39.872;2023-04-19T03:36:31;14.35;;;4.32;;
75682;SDS011;64295;44.772;39.872;2023-04-19T03:38:57;10.80;;;4.75;;
75682;SDS011;64295;44.772;39.872;2023-04-19T03:41:24;8.75;;;5.15;;
75682;SDS011;64295;44.772;39.872;2023-04-19T03:44:11;6.80;;;4.43;;
75682;SDS011;64295;44.772;39.872;2023-04-19T03:46:40;9.52;;;3.00;;
75682;SDS011;64295;44.772;39.872;2023-04-19T03:49:07;8.98;;;2.90;;
75682;SDS011;64295;44.772;39.872;2023-04-19T03:51:33;9.05;;;2.20;;
75682;SDS011;64295;44.772;39.872;2023-04-19T03:53:59;4.60;;;2.33;;
75682;SDS011;64295;44.772;39.872;2023-04-19T03:56:27;9.02;;;1.50;;
75682;SDS011;64295;44.772;39.872;2023-04-19T03:58:53;12.57;;;2.88;;
75682;SDS011;64295;44.772;39.872;2023-04-19T04:01:21;2.80;;;1.52;;
75682;SDS011;64295;44.772;39.872;2023-04-19T04:03:49;6.88;;;2.00;;
75682;SDS011;64295;44.772;39.872;2023-04-19T04:06:17;7.00;;;2.13;;
75682;SDS011;64295;44.772;39.872;2023-04-19T04:08:43;5.80;;;2.60;;
75682;SDS011;64295;44.772;39.872;2023-04-19T04:11:09;3.28;;;2.35;;
75682;SDS011;64295;44.772;39.872;2023-04-19T04:13:35;1.85;;;1.30;;
75682;SDS011;64295;44.772;39.872;2023-04-19T04:16:17;4.30;;;1.35;;
75682;SDS011;64295;44.772;39.872;2023-04-19T04:18:43;3.65;;;2.10;;
75682;SDS011;64295;44.772;39.872;2023-04-19T04:21:13;6.63;;;2.83;;
75682;SDS011;64295;44.772;39.872;2023-04-19T04:23:41;5.82;;;2.38;;
75682;SDS011;64295;44.772;39.872;2023-04-19T04:26:14;3.72;;;1.45;;
75682;SDS011;64295;44.772;39.872;2023-04-19T04:29:04;7.03;;;4.07;;
75682;SDS011;64295;44.772;39.872;2023-04-19T04:31:30;2.45;;;2.28;;
75682;SDS011;64295;44.772;39.872;2023-04-19T04:33:56;4.43;;;2.40;;
75682;SDS011;64295;44.772;39.872;2023-04-19T04:36:23;5.00;;;3.10;;
75682;SDS011;64295;44.772;39.872;2023-04-19T04:38:51;5.25;;;1.85;;
75682;SDS011;64295;44.772;39.872;2023-04-19T04:41:19;5.70;;;3.05;;
75682;SDS011;64295;44.772;39.872;2023-04-19T04:43:46;5.88;;;2.88;;
75682;SDS011;64295;44.772;39.872;2023-04-19T04:46:16;4.68;;;2.53;;
75682;SDS011;64295;44.772;39.872;2023-04-19T04:48:43;6.25;;;2.08;;
75682;SDS011;64295;44.772;39.872;2023-04-19T04:51:10;4.82;;;2.83;;
75682;SDS011;64295;44.772;39.872;2023-04-19T04:53:36;3.33;;;2.40;;
75682;SDS011;64295;44.772;39.872;2023-04-19T04:56:04;4.47;;;2.10;;
75682;SDS011;64295;44.772;39.872;2023-04-19T04:58:30;5.85;;;3.85;;
75682;SDS011;64295;44.772;39.872;2023-04-19T05:01:00;11.23;;;4.15;;
75682;SDS011;64295;44.772;39.872;2023-04-19T05:03:29;5.28;;;2.58;;
75682;SDS011;64295;44.772;39.872;2023-04-19T05:05:57;7.88;;;3.72;;
75682;SDS011;64295;44.772;39.872;2023-04-19T05:08:26;3.47;;;2.08;;
75682;SDS011;64295;44.772;39.872;2023-04-19T05:10:57;3.50;;;2.55;;
75682;SDS011;64295;44.772;39.872;2023-04-19T05:13:27;8.60;;;2.30;;
75682;SDS011;64295;44.772;39.872;2023-04-19T05:15:53;5.78;;;2.55;;
75682;SDS011;64295;44.772;39.872;2023-04-19T05:18:19;6.20;;;3.00;;
75682;SDS011;64295;44.772;39.872;2023-04-19T05:20:45;2.17;;;2.05;;
75682;SDS011;64295;44.772;39.872;2023-04-19T05:23:17;4.30;;;3.00;;
75682;SDS011;64295;44.772;39.872;2023-04-19T05:25:43;4.13;;;1.33;;
75682;SDS011;64295;44.772;39.872;2023-04-19T05:28:10;3.15;;;1.90;;
75682;SDS011;64295;44.772;39.872;2023-04-19T05:30:46;5.93;;;2.30;;
75682;SDS011;64295;44.772;39.872;2023-04-19T05:33:13;3.47;;;2.78;;
75682;SDS011;64295;44.772;39.872;2023-04-19T05:35:39;11.23;;;3.45;;
75682;SDS011;64295;44.772;39.872;2023-04-19T05:38:05;1.67;;;1.55;;
75682;SDS011;64295;44.772;39.872;2023-04-19T05:40:31;2.53;;;1.40;;
75682;SDS011;64295;44.772;39.872;2023-04-19T05:42:57;2.47;;;1.95;;
75682;SDS011;64295;44.772;39.872;2023-04-19T05:45:24;5.43;;;1.85;;
75682;SDS011;64295;44.772;39.872;2023-04-19T05:47:51;6.20;;;1.92;;
75682;SDS011;64295;44.772;39.872;2023-04-19T05:50:36;2.95;;;2.65;;
75682;SDS011;64295;44.772;39.872;2023-04-19T05:53:32;2.88;;;2.03;;
75682;SDS011;64295;44.772;39.872;2023-04-19T05:55:59;1.80;;;1.35;;
75682;SDS011;64295;44.772;39.872;2023-04-19T05:58:25;6.10;;;1.83;;
75682;SDS011;64295;44.772;39.872;2023-04-19T06:00:51;2.17;;;1.85;;
75682;SDS011;64295;44.772;39.872;2023-04-19T06:03:19;2.53;;;1.40;;
75682;SDS011;64295;44.772;39.872;2023-04-19T06:05:45;5.70;;;1.88;;
75682;SDS011;64295;44.772;39.872;2023-04-19T06:08:11;2.70;;;2.10;;
75682;SDS011;64295;44.772;39.872;2023-04-19T06:10:37;4.03;;;3.55;;
75682;SDS011;64295;44.772;39.872;2023-04-19T06:13:03;8.23;;;4.40;;
75682;SDS011;64295;44.772;39.872;2023-04-19T06:15:30;6.47;;;4.60;;
75682;SDS011;64295;44.772;39.872;2023-04-19T06:17:55;6.55;;;3.97;;
75682;SDS011;64295;44.772;39.872;2023-04-19T06:20:21;6.85;;;4.07;;
75682;SDS011;64295;44.772;39.872;2023-04-19T06:22:47;3.67;;;2.65;;
75682;SDS011;64295;44.772;39.872;2023-04-19T06:25:13;3.55;;;2.10;;
75682;SDS011;64295;44.772;39.872;2023-04-19T06:27:39;3.25;;;2.00;;
75682;SDS011;64295;44.772;39.872;2023-04-19T06:30:05;4.07;;;2.83;;
75682;SDS011;64295;44.772;39.872;2023-04-19T06:32:32;8.73;;;3.28;;
75682;SDS011;64295;44.772;39.872;2023-04-19T06:34:58;8.50;;;3.05;;
75682;SDS011;64295;44.772;39.872;2023-04-19T06:37:23;6.75;;;3.10;;
75682;SDS011;64295;44.772;39.872;2023-04-19T06:39:49;4.90;;;2.65;;
75682;SDS011;64295;44.772;39.872;2023-04-19T06:42:15;7.95;;;4.20;;
75682;SDS011;64295;44.772;39.872;2023-04-19T06:44:44;4.53;;;4.15;;
75682;SDS011;64295;44.772;39.872;2023-04-19T06:47:10;6.78;;;4.60;;
75682;SDS011;64295;44.772;39.872;2023-04-19T06:49:35;11.18;;;4.53;;
75682;SDS011;64295;44.772;39.872;2023-04-19T06:52:01;10.27;;;5.38;;
75682;SDS011;64295;44.772;39.872;2023-04-19T06:54:27;11.40;;;7.03;;
75682;SDS011;64295;44.772;39.872;2023-04-19T06:56:53;21.55;;;8.30;;
75682;SDS011;64295;44.772;39.872;2023-04-19T06:59:20;11.43;;;6.20;;
75682;SDS011;64295;44.772;39.872;2023-04-19T07:01:46;13.32;;;6.57;;
75682;SDS011;64295;44.772;39.872;2023-04-19T07:04:12;19.52;;;8.20;;
75682;SDS011;64295;44.772;39.872;2023-04-19T07:06:39;25.38;;;7.50;;
75682;SDS011;64295;44.772;39.872;2023-04-19T07:09:05;11.20;;;5.50;;
75682;SDS011;64295;44.772;39.872;2023-04-19T07:11:32;14.15;;;7.53;;
75682;SDS011;64295;44.772;39.872;2023-04-19T07:13:58;7.57;;;4.90;;
75682;SDS011;64295;44.772;39.872;2023-04-19T07:16:25;13.27;;;4.53;;
75682;SDS011;64295;44.772;39.872;2023-04-19T07:18:51;8.52;;;3.85;;
75682;SDS011;64295;44.772;39.872;2023-04-19T07:21:17;7.53;;;3.85;;
75682;SDS011;64295;44.772;39.872;2023-04-19T07:23:43;9.60;;;3.95;;
75682;SDS011;64295;44.772;39.872;2023-04-19T07:26:09;4.60;;;3.55;;
75682;SDS011;64295;44.772;39.872;2023-04-19T07:28:35;9.73;;;3.58;;
75682;SDS011;64295;44.772;39.872;2023-04-19T07:31:03;3.17;;;2.33;;
75682;SDS011;64295;44.772;39.872;2023-04-19T07:33:29;12.05;;;2.20;;
75682;SDS011;64295;44.772;39.872;2023-04-19T07:35:56;4.35;;;2.45;;
75682;SDS011;64295;44.772;39.872;2023-04-19T07:38:22;10.70;;;2.83;;
75682;SDS011;64295;44.772;39.872;2023-04-19T07:40:49;3.75;;;1.73;;
75682;SDS011;64295;44.772;39.872;2023-04-19T07:43:15;2.30;;;1.50;;
75682;SDS011;64295;44.772;39.872;2023-04-19T07:45:41;4.47;;;2.33;;
75682;SDS011;64295;44.772;39.872;2023-04-19T07:48:07;4.15;;;2.30;;
75682;SDS011;64295;44.772;39.872;2023-04-19T07:50:32;8.13;;;2.78;;
75682;SDS011;64295;44.772;39.872;2023-04-19T07:52:58;3.72;;;1.83;;
75682;SDS011;64295;44.772;39.872;2023-04-19T07:55:25;2.65;;;1.67;;
75682;SDS011;64295;44.772;39.872;2023-04-19T07:57:50;2.97;;;1.60;;
75682;SDS011;64295;44.772;39.872;2023-04-19T08:00:16;4.13;;;2.25;;
75682;SDS011;64295;44.772;39.872;2023-04-19T08:05:12;4.97;;;1.48;;
75682;SDS011;64295;44.772;39.872;2023-04-19T08:07:41;2.45;;;1.20;;
75682;SDS011;64295;44.772;39.872;2023-04-19T08:10:08;2.42;;;1.60;;
75682;SDS011;64295;44.772;39.872;2023-04-19T08:12:35;4.75;;;1.45;;
75682;SDS011;64295;44.772;39.872;2023-04-19T08:15:01;13.80;;;1.85;;
75682;SDS011;64295;44.772;39.872;2023-04-19T08:17:28;2.72;;;1.23;;
75682;SDS011;64295;44.772;39.872;2023-04-19T08:19:54;9.27;;;2.50;;
75682;SDS011;64295;44.772;39.872;2023-04-19T08:22:20;2.67;;;1.90;;
75682;SDS011;64295;44.772;39.872;2023-04-19T08:24:47;1.90;;;1.42;;
75682;SDS011;64295;44.772;39.872;2023-04-19T08:27:15;4.50;;;1.95;;
75682;SDS011;64295;44.772;39.872;2023-04-19T08:29:41;3.42;;;1.80;;
75682;SDS011;64295;44.772;39.872;2023-04-19T08:32:07;7.75;;;1.92;;
75682;SDS011;64295;44.772;39.872;2023-04-19T08:34:37;1.77;;;1.50;;
75682;SDS011;64295;44.772;39.872;2023-04-19T08:37:04;4.53;;;1.23;;
75682;SDS011;64295;44.772;39.872;2023-04-19T08:39:31;3.42;;;1.40;;
75682;SDS011;64295;44.772;39.872;2023-04-19T08:42:05;1.95;;;1.08;;
75682;SDS011;64295;44.772;39.872;2023-04-19T08:44:33;1.63;;;0.95;;
75682;SDS011;64295;44.772;39.872;2023-04-19T08:47:02;5.97;;;1.63;;
75682;SDS011;64295;44.772;39.872;2023-04-19T08:49:29;2.75;;;0.82;;
75682;SDS011;64295;44.772;39.872;2023-04-19T08:51:58;1.92;;;0.93;;
75682;SDS011;64295;44.772;39.872;2023-04-19T08:54:27;3.15;;;1.23;;
75682;SDS011;64295;44.772;39.872;2023-04-19T08:56:55;2.65;;;0.80;;
75682;SDS011;64295;44.772;39.872;2023-04-19T08:59:23;0.95;;;0.57;;
75682;SDS011;64295;44.772;39.872;2023-04-19T09:01:49;1.10;;;0.70;;
75682;SDS011;64295;44.772;39.872;2023-04-19T09:04:15;6.25;;;1.83;;
75682;SDS011;64295;44.772;39.872;2023-04-19T09:06:40;4.63;;;1.00;;
75682;SDS011;64295;44.772;39.872;2023-04-19T09:09:39;2.25;;;1.13;;
75682;SDS011;64295;44.772;39.872;2023-04-19T09:14:26;4.95;;;1.08;;
75682;SDS011;64295;44.772;39.872;2023-04-19T09:16:52;2.60;;;1.23;;
75682;SDS011;64295;44.772;39.872;2023-04-19T09:19:18;5.10;;;1.80;;
75682;SDS011;64295;44.772;39.872;2023-04-19T09:21:45;3.38;;;1.13;;
75682;SDS011;64295;44.772;39.872;2023-04-19T09:24:11;2.60;;;1.10;;
75682;SDS011;64295;44.772;39.872;2023-04-19T09:26:36;2.38;;;1.42;;
75682;SDS011;64295;44.772;39.872;2023-04-19T09:29:03;4.95;;;1.08;;
75682;SDS011;64295;44.772;39.872;2023-04-19T09:31:31;4.07;;;1.10;;
75682;SDS011;64295;44.772;39.872;2023-04-19T09:34:17;1.63;;;1.13;;
75682;SDS011;64295;44.772;39.872;2023-04-19T09:36:43;4.38;;;1.60;;
75682;SDS011;64295;44.772;39.872;2023-04-19T09:39:10;2.72;;;1.88;;
75682;SDS011;64295;44.772;39.872;2023-04-19T09:41:51;5.47;;;1.55;;
75682;SDS011;64295;44.772;39.872;2023-04-19T09:44:18;1.60;;;0.80;;
75682;SDS011;64295;44.772;39.872;2023-04-19T09:46:44;2.60;;;1.30;;
75682;SDS011;64295;44.772;39.872;2023-04-19T09:51:47;2.38;;;1.17;;
75682;SDS011;64295;44.772;39.872;2023-04-19T09:54:21;2.20;;;2.00;;
75682;SDS011;64295;44.772;39.872;2023-04-19T09:56:49;3.13;;;1.20;;
75682;SDS011;64295;44.772;39.872;2023-04-19T09:59:17;2.33;;;1.40;;
75682;SDS011;64295;44.772;39.872;2023-04-19T10:01:43;5.30;;;1.75;;
75682;SDS011;64295;44.772;39.872;2023-04-19T10:04:12;4.72;;;1.90;;
75682;SDS011;64295;44.772;39.872;2023-04-19T10:06:52;2.22;;;0.70;;
75682;SDS011;64295;44.772;39.872;2023-04-19T10:09:19;3.33;;;1.00;;
75682;SDS011;64295;44.772;39.872;2023-04-19T10:11:47;1.30;;;1.10;;
75682;SDS011;64295;44.772;39.872;2023-04-19T10:14:15;2.85;;;1.15;;
75682;SDS011;64295;44.772;39.872;2023-04-19T10:16:42;4.15;;;1.00;;
75682;SDS011;64295;44.772;39.872;2023-04-19T10:19:09;5.90;;;2.08;;
75682;SDS011;64295;44.772;39.872;2023-04-19T10:21:36;3.92;;;1.65;;
75682;SDS011;64295;44.772;39.872;2023-04-19T10:24:04;6.45;;;1.70;;
75682;SDS011;64295;44.772;39.872;2023-04-19T10:26:30;1.55;;;1.15;;
75682;SDS011;64295;44.772;39.872;2023-04-19T10:32:19;2.47;;;1.10;;
75682;SDS011;64295;44.772;39.872;2023-04-19T10:34:45;3.80;;;0.95;;
75682;SDS011;64295;44.772;39.872;2023-04-19T10:37:15;3.13;;;1.30;;
75682;SDS011;64295;44.772;39.872;2023-04-19T10:39:42;4.63;;;1.30;;
75682;SDS011;64295;44.772;39.872;2023-04-19T10:42:09;3.33;;;1.33;;
75682;SDS011;64295;44.772;39.872;2023-04-19T10:44:35;4.05;;;2.70;;
75682;SDS011;64295;44.772;39.872;2023-04-19T10:47:01;2.45;;;1.63;;
75682;SDS011;64295;44.772;39.872;2023-04-19T10:49:29;4.43;;;1.00;;
75682;SDS011;64295;44.772;39.872;2023-04-19T10:51:55;2.55;;;1.48;;
75682;SDS011;64295;44.772;39.872;2023-04-19T10:54:34;5.10;;;1.40;;
75682;SDS011;64295;44.772;39.872;2023-04-19T10:57:04;3.30;;;1.52;;
75682;SDS011;64295;44.772;39.872;2023-04-19T10:59:32;6.40;;;1.48;;
75682;SDS011;64295;44.772;39.872;2023-04-19T11:02:25;3.17;;;0.98;;
75682;SDS011;64295;44.772;39.872;2023-04-19T11:07:14;1.92;;;0.93;;
75682;SDS011;64295;44.772;39.872;2023-04-19T11:09:45;1.85;;;0.75;;
75682;SDS011;64295;44.772;39.872;2023-04-19T11:12:13;1.50;;;1.23;;
75682;SDS011;64295;44.772;39.872;2023-04-19T11:14:40;6.20;;;1.30;;
75682;SDS011;64295;44.772;39.872;2023-04-19T11:19:53;2.97;;;1.10;;
75682;SDS011;64295;44.772;39.872;2023-04-19T11:22:24;3.17;;;1.52;;
75682;SDS011;64295;44.772;39.872;2023-04-19T11:24:50;3.03;;;1.27;;
75682;SDS011;64295;44.772;39.872;2023-04-19T11:27:16;6.18;;;1.10;;
75682;SDS011;64295;44.772;39.872;2023-04-19T11:29:42;2.45;;;1.35;;
75682;SDS011;64295;44.772;39.872;2023-04-19T11:32:08;2.40;;;0.93;;
75682;SDS011;64295;44.772;39.872;2023-04-19T11:34:34;1.30;;;0.85;;
75682;SDS011;64295;44.772;39.872;2023-04-19T11:37:02;4.18;;;1.02;;
75682;SDS011;64295;44.772;39.872;2023-04-19T11:39:28;5.90;;;1.65;;
75682;SDS011;64295;44.772;39.872;2023-04-19T11:41:53;4.43;;;1.50;;
75682;SDS011;64295;44.772;39.872;2023-04-19T11:44:19;2.38;;;1.50;;
75682;SDS011;64295;44.772;39.872;2023-04-19T11:47:01;3.47;;;1.70;;
75682;SDS011;64295;44.772;39.872;2023-04-19T11:49:30;4.88;;;1.70;;
75682;SDS011;64295;44.772;39.872;2023-04-19T11:52:02;5.60;;;1.70;;
75682;SDS011;64295;44.772;39.872;2023-04-19T11:54:30;3.13;;;1.42;;
75682;SDS011;64295;44.772;39.872;2023-04-19T11:56:59;5.18;;;1.67;;
75682;SDS011;64295;44.772;39.872;2023-04-19T11:59:30;5.85;;;2.15;;
75682;SDS011;64295;44.772;39.872;2023-04-19T12:02:06;3.22;;;1.73;;
75682;SDS011;64295;44.772;39.872;2023-04-19T12:04:34;4.65;;;2.17;;
75682;SDS011;64295;44.772;39.872;2023-04-19T12:07:01;1.15;;;0.85;;
75682;SDS011;64295;44.772;39.872;2023-04-19T12:09:28;3.05;;;1.45;;
75682;SDS011;64295;44.772;39.872;2023-04-19T12:11:54;4.05;;;1.60;;
75682;SDS011;64295;44.772;39.872;2023-04-19T12:14:21;8.07;;;2.13;;
75682;SDS011;64295;44.772;39.872;2023-04-19T12:19:36;3.05;;;1.77;;
75682;SDS011;64295;44.772;39.872;2023-04-19T12:22:11;1.58;;;1.33;;
75682;SDS011;64295;44.772;39.872;2023-04-19T12:24:38;3.17;;;1.35;;
75682;SDS011;64295;44.772;39.872;2023-04-19T12:27:05;3.05;;;1.30;;
75682;SDS011;64295;44.772;39.872;2023-04-19T12:29:31;2.42;;;1.25;;
75682;SDS011;64295;44.772;39.872;2023-04-19T12:31:58;4.35;;;3.03;;
75682;SDS011;64295;44.772;39.872;2023-04-19T12:34:25;3.78;;;1.48;;
75682;SDS011;64295;44.772;39.872;2023-04-19T12:36:52;2.65;;;1.70;;
75682;SDS011;64295;44.772;39.872;2023-04-19T12:39:19;2.80;;;1.77;;
75682;SDS011;64295;44.772;39.872;2023-04-19T12:41:45;4.20;;;1.83;;
75682;SDS011;64295;44.772;39.872;2023-04-19T12:44:13;2.45;;;1.73;;
75682;SDS011;64295;44.772;39.872;2023-04-19T12:46:40;3.80;;;2.17;;
75682;SDS011;64295;44.772;39.872;2023-04-19T12:49:06;4.97;;;1.98;;
75682;SDS011;64295;44.772;39.872;2023-04-19T12:51:32;3.17;;;1.85;;
75682;SDS011;64295;44.772;39.872;2023-04-19T12:53:58;5.68;;;2.58;;
75682;SDS011;64295;44.772;39.872;2023-04-19T12:56:24;4.45;;;2.00;;
75682;SDS011;64295;44.772;39.872;2023-04-19T12:58:50;7.53;;;2.55;;
75682;SDS011;64295;44.772;39.872;2023-04-19T13:01:17;7.18;;;2.13;;
75682;SDS011;64295;44.772;39.872;2023-04-19T13:03:43;3.53;;;2.15;;
75682;SDS011;64295;44.772;39.872;2023-04-19T13:06:09;5.85;;;2.58;;
75682;SDS011;64295;44.772;39.872;2023-04-19T13:08:39;2.63;;;1.70;;
75682;SDS011;64295;44.772;39.872;2023-04-19T13:11:05;3.83;;;1.52;;
75682;SDS011;64295;44.772;39.872;2023-04-19T13:13:32;2.53;;;1.48;;
75682;SDS011;64295;44.772;39.872;2023-04-19T13:15:59;2.47;;;1.40;;
75682;SDS011;64295;44.772;39.872;2023-04-19T13:18:25;6.50;;;2.08;;
75682;SDS011;64295;44.772;39.872;2023-04-19T13:20:51;4.65;;;2.17;;
75682;SDS011;64295;44.772;39.872;2023-04-19T13:23:18;5.38;;;2.13;;
75682;SDS011;64295;44.772;39.872;2023-04-19T13:25:44;4.22;;;2.38;;
75682;SDS011;64295;44.772;39.872;2023-04-19T13:28:10;3.05;;;1.50;;
75682;SDS011;64295;44.772;39.872;2023-04-19T13:30:36;5.90;;;1.90;;
75682;SDS011;64295;44.772;39.872;2023-04-19T13:33:02;8.23;;;2.20;;
75682;SDS011;64295;44.772;39.872;2023-04-19T13:35:28;2.35;;;1.60;;
75682;SDS011;64295;44.772;39.872;2023-04-19T13:37:54;3.60;;;1.70;;
75682;SDS011;64295;44.772;39.872;2023-04-19T13:40:20;2.85;;;2.03;;
75682;SDS011;64295;44.772;39.872;2023-04-19T13:42:46;6.18;;;1.70;;
75682;SDS011;64295;44.772;39.872;2023-04-19T13:45:12;3.80;;;1.58;;
75682;SDS011;64295;44.772;39.872;2023-04-19T13:47:38;6.93;;;2.20;;
75682;SDS011;64295;44.772;39.872;2023-04-19T13:50:04;7.78;;;1.55;;
75682;SDS011;64295;44.772;39.872;2023-04-19T13:52:31;1.67;;;1.38;;
75682;SDS011;64295;44.772;39.872;2023-04-19T13:54:57;4.78;;;1.50;;
75682;SDS011;64295;44.772;39.872;2023-04-19T13:57:23;4.68;;;1.65;;
75682;SDS011;64295;44.772;39.872;2023-04-19T13:59:49;5.18;;;2.33;;
75682;SDS011;64295;44.772;39.872;2023-04-19T14:02:15;6.63;;;2.22;;
75682;SDS011;64295;44.772;39.872;2023-04-19T14:04:41;10.35;;;2.15;;
75682;SDS011;64295;44.772;39.872;2023-04-19T14:07:07;2.58;;;1.60;;
75682;SDS011;64295;44.772;39.872;2023-04-19T14:09:33;3.67;;;1.95;;
75682;SDS011;64295;44.772;39.872;2023-04-19T14:11:58;5.50;;;2.42;;
75682;SDS011;64295;44.772;39.872;2023-04-19T14:14:25;8.73;;;2.95;;
75682;SDS011;64295;44.772;39.872;2023-04-19T14:16:51;4.63;;;2.15;;
75682;SDS011;64295;44.772;39.872;2023-04-19T14:19:16;4.68;;;2.47;;
75682;SDS011;64295;44.772;39.872;2023-04-19T14:21:42;9.43;;;2.30;;
75682;SDS011;64295;44.772;39.872;2023-04-19T14:24:08;5.82;;;1.90;;
75682;SDS011;64295;44.772;39.872;2023-04-19T14:26:34;8.52;;;2.38;;
75682;SDS011;64295;44.772;39.872;2023-04-19T14:29:00;2.40;;;1.60;;
75682;SDS011;64295;44.772;39.872;2023-04-19T14:31:26;4.95;;;1.67;;
75682;SDS011;64295;44.772;39.872;2023-04-19T14:33:52;4.68;;;1.48;;
75682;SDS011;64295;44.772;39.872;2023-04-19T14:36:18;5.32;;;1.38;;
75682;SDS011;64295;44.772;39.872;2023-04-19T14:38:43;4.97;;;1.05;;
75682;SDS011;64295;44.772;39.872;2023-04-19T14:41:09;2.38;;;1.15;;
75682;SDS011;64295;44.772;39.872;2023-04-19T14:43:35;4.03;;;1.50;;
75682;SDS011;64295;44.772;39.872;2023-04-19T14:46:01;3.47;;;1.45;;
75682;SDS011;64295;44.772;39.872;2023-04-19T14:48:27;1.83;;;1.23;;
75682;SDS011;64295;44.772;39.872;2023-04-19T14:50:54;1.80;;;1.05;;
75682;SDS011;64295;44.772;39.872;2023-04-19T14:53:20;3.40;;;1.73;;